sensor_id;sensor_type;location;lat;lon;timestamp;P1;durP1;ratioP1;P2;durP2;ratioP2
76380;SDS011;65202;52.520;10.528;2024-01-27T00:01:10;34.33;;;3.88;;
76380;SDS011;65202;52.520;10.528;2024-01-27T00:03:38;30.10;;;4.20;;
76380;SDS011;65202;52.520;10.528;2024-01-27T00:06:05;29.70;;;4.05;;
76380;SDS011;65202;52.520;10.528;2024-01-27T00:08:33;32.85;;;4.15;;
76380;SDS011;65202;52.520;10.528;2024-01-27T00:11:00;34.30;;;4.10;;
76380;SDS011;65202;52.520;10.528;2024-01-27T00:13:28;35.25;;;4.00;;
76380;SDS011;65202;52.520;10.528;2024-01-27T00:15:55;33.95;;;3.63;;
76380;SDS011;65202;52.520;10.528;2024-01-27T00:18:22;28.77;;;4.30;;
76380;SDS011;65202;52.520;10.528;2024-01-27T00:20:50;28.55;;;3.90;;
76380;SDS011;65202;52.520;10.528;2024-01-27T00:23:18;46.15;;;3.97;;
76380;SDS011;65202;52.520;10.528;2024-01-27T00:25:45;35.80;;;3.65;;
76380;SDS011;65202;52.520;10.528;2024-01-27T00:28:12;27.10;;;3.50;;
76380;SDS011;65202;52.520;10.528;2024-01-27T00:30:40;30.63;;;4.18;;
76380;SDS011;65202;52.520;10.528;2024-01-27T00:33:07;28.90;;;3.50;;
76380;SDS011;65202;52.520;10.528;2024-01-27T00:35:35;25.77;;;3.53;;
76380;SDS011;65202;52.520;10.528;2024-01-27T00:38:02;29.88;;;4.35;;
76380;SDS011;65202;52.520;10.528;2024-01-27T00:40:30;35.90;;;4.95;;
76380;SDS011;65202;52.520;10.528;2024-01-27T00:42:57;26.13;;;4.05;;
76380;SDS011;65202;52.520;10.528;2024-01-27T00:45:25;31.80;;;3.22;;
76380;SDS011;65202;52.520;10.528;2024-01-27T00:47:55;29.95;;;3.53;;
76380;SDS011;65202;52.520;10.528;2024-01-27T00:50:25;38.92;;;4.60;;
76380;SDS011;65202;52.520;10.528;2024-01-27T00:52:55;31.33;;;3.53;;
76380;SDS011;65202;52.520;10.528;2024-01-27T00:55:25;34.50;;;4.00;;
76380;SDS011;65202;52.520;10.528;2024-01-27T00:57:53;35.63;;;3.65;;
76380;SDS011;65202;52.520;10.528;2024-01-27T01:00:21;28.80;;;3.83;;
76380;SDS011;65202;52.520;10.528;2024-01-27T01:02:48;37.80;;;4.18;;
76380;SDS011;65202;52.520;10.528;2024-01-27T01:05:16;33.55;;;4.28;;
76380;SDS011;65202;52.520;10.528;2024-01-27T01:07:43;31.63;;;3.97;;
76380;SDS011;65202;52.520;10.528;2024-01-27T01:10:11;28.27;;;3.97;;
76380;SDS011;65202;52.520;10.528;2024-01-27T01:12:38;33.15;;;3.63;;
76380;SDS011;65202;52.520;10.528;2024-01-27T01:15:06;27.33;;;3.97;;
76380;SDS011;65202;52.520;10.528;2024-01-27T01:17:34;30.42;;;3.75;;
76380;SDS011;65202;52.520;10.528;2024-01-27T01:20:02;36.80;;;4.38;;
76380;SDS011;65202;52.520;10.528;2024-01-27T01:22:29;29.23;;;4.35;;
76380;SDS011;65202;52.520;10.528;2024-01-27T01:24:57;31.70;;;3.63;;
76380;SDS011;65202;52.520;10.528;2024-01-27T01:27:25;30.98;;;4.80;;
76380;SDS011;65202;52.520;10.528;2024-01-27T01:29:53;35.65;;;3.78;;
76380;SDS011;65202;52.520;10.528;2024-01-27T01:32:21;37.45;;;4.50;;
76380;SDS011;65202;52.520;10.528;2024-01-27T01:34:51;37.35;;;5.07;;
76380;SDS011;65202;52.520;10.528;2024-01-27T01:37:18;30.35;;;3.95;;
76380;SDS011;65202;52.520;10.528;2024-01-27T01:39:46;37.22;;;4.35;;
76380;SDS011;65202;52.520;10.528;2024-01-27T01:42:13;37.28;;;3.88;;
76380;SDS011;65202;52.520;10.528;2024-01-27T01:44:41;30.85;;;4.18;;
76380;SDS011;65202;52.520;10.528;2024-01-27T01:47:09;34.20;;;4.63;;
76380;SDS011;65202;52.520;10.528;2024-01-27T01:49:36;30.50;;;4.03;;
76380;SDS011;65202;52.520;10.528;2024-01-27T01:52:04;30.75;;;4.03;;
76380;SDS011;65202;52.520;10.528;2024-01-27T01:54:33;35.80;;;3.22;;
76380;SDS011;65202;52.520;10.528;2024-01-27T01:57:00;39.30;;;5.00;;
76380;SDS011;65202;52.520;10.528;2024-01-27T01:59:29;35.28;;;4.03;;
76380;SDS011;65202;52.520;10.528;2024-01-27T02:01:57;32.40;;;4.07;;
76380;SDS011;65202;52.520;10.528;2024-01-27T02:04:24;30.48;;;3.95;;
76380;SDS011;65202;52.520;10.528;2024-01-27T02:06:52;31.30;;;4.30;;
76380;SDS011;65202;52.520;10.528;2024-01-27T02:09:20;30.25;;;3.80;;
76380;SDS011;65202;52.520;10.528;2024-01-27T02:11:47;36.05;;;4.47;;
76380;SDS011;65202;52.520;10.528;2024-01-27T02:14:15;33.63;;;4.03;;
76380;SDS011;65202;52.520;10.528;2024-01-27T02:16:45;23.83;;;3.30;;
76380;SDS011;65202;52.520;10.528;2024-01-27T02:19:15;30.20;;;4.32;;
76380;SDS011;65202;52.520;10.528;2024-01-27T02:21:43;33.35;;;4.95;;
76380;SDS011;65202;52.520;10.528;2024-01-27T02:24:10;36.35;;;4.95;;
76380;SDS011;65202;52.520;10.528;2024-01-27T02:26:38;33.55;;;4.55;;
76380;SDS011;65202;52.520;10.528;2024-01-27T02:29:05;34.38;;;4.95;;
76380;SDS011;65202;52.520;10.528;2024-01-27T02:31:33;37.08;;;4.43;;
76380;SDS011;65202;52.520;10.528;2024-01-27T02:34:00;33.28;;;4.55;;
76380;SDS011;65202;52.520;10.528;2024-01-27T02:36:28;41.75;;;4.97;;
76380;SDS011;65202;52.520;10.528;2024-01-27T02:38:56;46.20;;;4.40;;
76380;SDS011;65202;52.520;10.528;2024-01-27T02:41:23;39.90;;;4.85;;
76380;SDS011;65202;52.520;10.528;2024-01-27T02:43:51;33.20;;;4.40;;
76380;SDS011;65202;52.520;10.528;2024-01-27T02:46:19;33.28;;;4.32;;
76380;SDS011;65202;52.520;10.528;2024-01-27T02:48:46;45.03;;;5.32;;
76380;SDS011;65202;52.520;10.528;2024-01-27T02:51:18;34.88;;;4.75;;
76380;SDS011;65202;52.520;10.528;2024-01-27T02:53:49;39.80;;;4.18;;
76380;SDS011;65202;52.520;10.528;2024-01-27T02:56:17;30.98;;;4.80;;
76380;SDS011;65202;52.520;10.528;2024-01-27T02:58:44;32.70;;;4.30;;
76380;SDS011;65202;52.520;10.528;2024-01-27T03:01:12;29.70;;;4.60;;
76380;SDS011;65202;52.520;10.528;2024-01-27T03:03:39;30.15;;;4.45;;
76380;SDS011;65202;52.520;10.528;2024-01-27T03:06:08;33.80;;;4.45;;
76380;SDS011;65202;52.520;10.528;2024-01-27T03:08:35;42.22;;;4.82;;
76380;SDS011;65202;52.520;10.528;2024-01-27T03:11:03;33.30;;;5.00;;
76380;SDS011;65202;52.520;10.528;2024-01-27T03:13:34;38.03;;;5.00;;
76380;SDS011;65202;52.520;10.528;2024-01-27T03:16:01;35.85;;;6.60;;
76380;SDS011;65202;52.520;10.528;2024-01-27T03:18:29;40.05;;;4.72;;
76380;SDS011;65202;52.520;10.528;2024-01-27T03:20:57;36.92;;;4.60;;
76380;SDS011;65202;52.520;10.528;2024-01-27T03:23:24;30.98;;;5.05;;
76380;SDS011;65202;52.520;10.528;2024-01-27T03:25:51;33.80;;;4.57;;
76380;SDS011;65202;52.520;10.528;2024-01-27T03:28:21;33.42;;;4.15;;
76380;SDS011;65202;52.520;10.528;2024-01-27T03:30:48;33.13;;;4.40;;
76380;SDS011;65202;52.520;10.528;2024-01-27T03:33:18;30.23;;;4.00;;
76380;SDS011;65202;52.520;10.528;2024-01-27T03:35:49;36.00;;;4.60;;
76380;SDS011;65202;52.520;10.528;2024-01-27T03:38:17;35.42;;;4.47;;
76380;SDS011;65202;52.520;10.528;2024-01-27T03:40:45;42.33;;;4.35;;
76380;SDS011;65202;52.520;10.528;2024-01-27T03:43:13;38.40;;;4.57;;
76380;SDS011;65202;52.520;10.528;2024-01-27T03:45:40;39.33;;;5.22;;
76380;SDS011;65202;52.520;10.528;2024-01-27T03:48:08;38.30;;;5.13;;
76380;SDS011;65202;52.520;10.528;2024-01-27T03:50:35;35.42;;;5.15;;
76380;SDS011;65202;52.520;10.528;2024-01-27T03:53:03;39.63;;;5.32;;
76380;SDS011;65202;52.520;10.528;2024-01-27T03:55:31;40.95;;;5.07;;
76380;SDS011;65202;52.520;10.528;2024-01-27T03:57:59;44.00;;;5.80;;
76380;SDS011;65202;52.520;10.528;2024-01-27T04:00:26;34.72;;;5.30;;
76380;SDS011;65202;52.520;10.528;2024-01-27T04:02:56;29.92;;;4.00;;
76380;SDS011;65202;52.520;10.528;2024-01-27T04:05:24;36.45;;;4.70;;
76380;SDS011;65202;52.520;10.528;2024-01-27T04:07:52;42.42;;;4.78;;
76380;SDS011;65202;52.520;10.528;2024-01-27T04:10:20;31.85;;;4.53;;
76380;SDS011;65202;52.520;10.528;2024-01-27T04:12:49;39.10;;;5.03;;
76380;SDS011;65202;52.520;10.528;2024-01-27T04:15:16;48.45;;;5.75;;
76380;SDS011;65202;52.520;10.528;2024-01-27T04:17:44;29.15;;;4.35;;
76380;SDS011;65202;52.520;10.528;2024-01-27T04:20:12;32.20;;;4.28;;
76380;SDS011;65202;52.520;10.528;2024-01-27T04:22:39;30.77;;;4.53;;
76380;SDS011;65202;52.520;10.528;2024-01-27T04:25:07;37.15;;;4.78;;
76380;SDS011;65202;52.520;10.528;2024-01-27T04:27:37;40.03;;;5.20;;
76380;SDS011;65202;52.520;10.528;2024-01-27T04:30:12;38.22;;;5.40;;
76380;SDS011;65202;52.520;10.528;2024-01-27T04:32:40;37.47;;;5.43;;
76380;SDS011;65202;52.520;10.528;2024-01-27T04:35:11;37.70;;;5.40;;
76380;SDS011;65202;52.520;10.528;2024-01-27T04:37:39;35.20;;;5.45;;
76380;SDS011;65202;52.520;10.528;2024-01-27T04:40:06;37.70;;;5.65;;
76380;SDS011;65202;52.520;10.528;2024-01-27T04:42:34;32.28;;;5.68;;
76380;SDS011;65202;52.520;10.528;2024-01-27T04:45:05;36.05;;;5.38;;
76380;SDS011;65202;52.520;10.528;2024-01-27T04:47:35;38.55;;;5.28;;
76380;SDS011;65202;52.520;10.528;2024-01-27T04:50:02;41.20;;;4.78;;
76380;SDS011;65202;52.520;10.528;2024-01-27T04:52:31;39.65;;;6.25;;
76380;SDS011;65202;52.520;10.528;2024-01-27T04:54:59;36.05;;;5.43;;
76380;SDS011;65202;52.520;10.528;2024-01-27T04:57:27;39.08;;;5.35;;
76380;SDS011;65202;52.520;10.528;2024-01-27T04:59:54;27.13;;;4.32;;
76380;SDS011;65202;52.520;10.528;2024-01-27T05:02:22;36.25;;;4.70;;
76380;SDS011;65202;52.520;10.528;2024-01-27T05:04:49;33.25;;;4.88;;
76380;SDS011;65202;52.520;10.528;2024-01-27T05:07:17;42.20;;;5.43;;
76380;SDS011;65202;52.520;10.528;2024-01-27T05:09:44;36.83;;;4.47;;
76380;SDS011;65202;52.520;10.528;2024-01-27T05:12:12;38.40;;;5.18;;
76380;SDS011;65202;52.520;10.528;2024-01-27T05:14:43;42.00;;;5.32;;
76380;SDS011;65202;52.520;10.528;2024-01-27T05:17:12;31.75;;;5.18;;
76380;SDS011;65202;52.520;10.528;2024-01-27T05:19:39;25.35;;;4.10;;
76380;SDS011;65202;52.520;10.528;2024-01-27T05:22:07;34.90;;;4.65;;
76380;SDS011;65202;52.520;10.528;2024-01-27T05:24:34;36.67;;;4.93;;
76380;SDS011;65202;52.520;10.528;2024-01-27T05:27:02;35.17;;;5.13;;
76380;SDS011;65202;52.520;10.528;2024-01-27T05:29:29;32.45;;;4.15;;
76380;SDS011;65202;52.520;10.528;2024-01-27T05:31:56;32.97;;;4.80;;
76380;SDS011;65202;52.520;10.528;2024-01-27T05:34:24;36.03;;;4.35;;
76380;SDS011;65202;52.520;10.528;2024-01-27T05:36:51;32.53;;;4.07;;
76380;SDS011;65202;52.520;10.528;2024-01-27T05:39:19;34.55;;;4.95;;
76380;SDS011;65202;52.520;10.528;2024-01-27T05:41:46;29.30;;;4.60;;
76380;SDS011;65202;52.520;10.528;2024-01-27T05:44:14;34.65;;;5.38;;
76380;SDS011;65202;52.520;10.528;2024-01-27T05:46:41;34.83;;;4.25;;
76380;SDS011;65202;52.520;10.528;2024-01-27T05:49:09;31.58;;;4.47;;
76380;SDS011;65202;52.520;10.528;2024-01-27T05:51:36;33.30;;;3.95;;
76380;SDS011;65202;52.520;10.528;2024-01-27T05:54:05;37.80;;;4.50;;
76380;SDS011;65202;52.520;10.528;2024-01-27T05:56:35;34.72;;;5.43;;
76380;SDS011;65202;52.520;10.528;2024-01-27T05:59:03;37.92;;;4.78;;
76380;SDS011;65202;52.520;10.528;2024-01-27T06:01:31;31.42;;;4.88;;
76380;SDS011;65202;52.520;10.528;2024-01-27T06:03:58;35.20;;;5.35;;
76380;SDS011;65202;52.520;10.528;2024-01-27T06:06:26;33.38;;;4.53;;
76380;SDS011;65202;52.520;10.528;2024-01-27T06:08:53;30.92;;;4.70;;
76380;SDS011;65202;52.520;10.528;2024-01-27T06:11:24;35.25;;;4.60;;
76380;SDS011;65202;52.520;10.528;2024-01-27T06:13:52;31.60;;;4.25;;
76380;SDS011;65202;52.520;10.528;2024-01-27T06:16:19;35.28;;;4.40;;
76380;SDS011;65202;52.520;10.528;2024-01-27T06:18:47;34.83;;;4.10;;
76380;SDS011;65202;52.520;10.528;2024-01-27T06:21:16;33.75;;;4.05;;
76380;SDS011;65202;52.520;10.528;2024-01-27T06:23:43;28.60;;;4.65;;
76380;SDS011;65202;52.520;10.528;2024-01-27T06:26:12;39.33;;;4.43;;
76380;SDS011;65202;52.520;10.528;2024-01-27T06:28:41;31.30;;;5.43;;
76380;SDS011;65202;52.520;10.528;2024-01-27T06:31:08;36.05;;;4.90;;
76380;SDS011;65202;52.520;10.528;2024-01-27T06:33:36;41.03;;;4.65;;
76380;SDS011;65202;52.520;10.528;2024-01-27T06:36:03;28.88;;;4.32;;
76380;SDS011;65202;52.520;10.528;2024-01-27T06:38:31;27.98;;;4.57;;
76380;SDS011;65202;52.520;10.528;2024-01-27T06:40:58;29.67;;;4.07;;
76380;SDS011;65202;52.520;10.528;2024-01-27T06:43:26;45.33;;;4.97;;
76380;SDS011;65202;52.520;10.528;2024-01-27T06:45:53;25.15;;;3.88;;
76380;SDS011;65202;52.520;10.528;2024-01-27T06:48:23;38.30;;;4.45;;
76380;SDS011;65202;52.520;10.528;2024-01-27T06:50:54;32.97;;;4.28;;
76380;SDS011;65202;52.520;10.528;2024-01-27T06:53:21;32.20;;;4.07;;
76380;SDS011;65202;52.520;10.528;2024-01-27T06:55:49;39.63;;;5.13;;
76380;SDS011;65202;52.520;10.528;2024-01-27T06:58:17;30.60;;;4.63;;
76380;SDS011;65202;52.520;10.528;2024-01-27T07:00:44;36.55;;;5.32;;
76380;SDS011;65202;52.520;10.528;2024-01-27T07:03:12;39.60;;;4.45;;
76380;SDS011;65202;52.520;10.528;2024-01-27T07:05:40;32.53;;;4.90;;
76380;SDS011;65202;52.520;10.528;2024-01-27T07:08:08;24.67;;;4.07;;
76380;SDS011;65202;52.520;10.528;2024-01-27T07:10:36;31.92;;;4.40;;
76380;SDS011;65202;52.520;10.528;2024-01-27T07:13:05;26.60;;;4.20;;
76380;SDS011;65202;52.520;10.528;2024-01-27T07:15:35;24.73;;;4.03;;
76380;SDS011;65202;52.520;10.528;2024-01-27T07:18:04;30.38;;;4.63;;
76380;SDS011;65202;52.520;10.528;2024-01-27T07:20:32;34.17;;;5.15;;
76380;SDS011;65202;52.520;10.528;2024-01-27T07:23:00;34.22;;;5.97;;
76380;SDS011;65202;52.520;10.528;2024-01-27T07:25:27;32.95;;;5.97;;
76380;SDS011;65202;52.520;10.528;2024-01-27T07:27:56;34.17;;;5.90;;
76380;SDS011;65202;52.520;10.528;2024-01-27T07:30:23;32.03;;;5.07;;
76380;SDS011;65202;52.520;10.528;2024-01-27T07:32:51;24.08;;;4.53;;
76380;SDS011;65202;52.520;10.528;2024-01-27T07:35:18;40.75;;;6.60;;
76380;SDS011;65202;52.520;10.528;2024-01-27T07:37:46;31.40;;;4.85;;
76380;SDS011;65202;52.520;10.528;2024-01-27T07:40:13;35.88;;;5.13;;
76380;SDS011;65202;52.520;10.528;2024-01-27T07:42:42;35.80;;;5.25;;
76380;SDS011;65202;52.520;10.528;2024-01-27T07:45:10;32.88;;;5.13;;
76380;SDS011;65202;52.520;10.528;2024-01-27T07:47:38;31.27;;;4.82;;
76380;SDS011;65202;52.520;10.528;2024-01-27T07:50:05;32.33;;;5.90;;
76380;SDS011;65202;52.520;10.528;2024-01-27T07:52:33;24.92;;;4.80;;
76380;SDS011;65202;52.520;10.528;2024-01-27T07:55:00;35.28;;;5.43;;
76380;SDS011;65202;52.520;10.528;2024-01-27T07:57:28;30.48;;;4.53;;
76380;SDS011;65202;52.520;10.528;2024-01-27T07:59:56;24.00;;;4.03;;
76380;SDS011;65202;52.520;10.528;2024-01-27T08:02:23;34.50;;;4.72;;
76380;SDS011;65202;52.520;10.528;2024-01-27T08:04:53;33.08;;;4.78;;
76380;SDS011;65202;52.520;10.528;2024-01-27T08:07:20;38.28;;;5.30;;
76380;SDS011;65202;52.520;10.528;2024-01-27T08:09:48;28.15;;;4.78;;
76380;SDS011;65202;52.520;10.528;2024-01-27T08:12:15;30.67;;;4.88;;
76380;SDS011;65202;52.520;10.528;2024-01-27T08:14:43;29.50;;;4.50;;
76380;SDS011;65202;52.520;10.528;2024-01-27T08:17:10;27.60;;;4.63;;
76380;SDS011;65202;52.520;10.528;2024-01-27T08:19:38;32.60;;;4.72;;
76380;SDS011;65202;52.520;10.528;2024-01-27T08:22:05;41.13;;;7.88;;
76380;SDS011;65202;52.520;10.528;2024-01-27T08:24:33;30.88;;;4.65;;
76380;SDS011;65202;52.520;10.528;2024-01-27T08:27:00;25.88;;;4.50;;
76380;SDS011;65202;52.520;10.528;2024-01-27T08:29:28;19.35;;;4.00;;
76380;SDS011;65202;52.520;10.528;2024-01-27T08:31:56;24.13;;;4.60;;
76380;SDS011;65202;52.520;10.528;2024-01-27T08:34:23;20.88;;;3.65;;
76380;SDS011;65202;52.520;10.528;2024-01-27T08:36:51;18.45;;;3.85;;
76380;SDS011;65202;52.520;10.528;2024-01-27T08:39:18;21.30;;;4.28;;
76380;SDS011;65202;52.520;10.528;2024-01-27T08:41:46;27.92;;;4.72;;
76380;SDS011;65202;52.520;10.528;2024-01-27T08:44:13;20.65;;;4.65;;
76380;SDS011;65202;52.520;10.528;2024-01-27T08:46:41;25.42;;;7.00;;
76380;SDS011;65202;52.520;10.528;2024-01-27T08:49:08;27.52;;;7.95;;
76380;SDS011;65202;52.520;10.528;2024-01-27T08:51:36;21.10;;;4.10;;
76380;SDS011;65202;52.520;10.528;2024-01-27T08:54:03;20.95;;;4.38;;
76380;SDS011;65202;52.520;10.528;2024-01-27T08:56:31;18.92;;;4.20;;
76380;SDS011;65202;52.520;10.528;2024-01-27T08:58:59;15.63;;;3.92;;
76380;SDS011;65202;52.520;10.528;2024-01-27T09:01:26;23.35;;;4.68;;
76380;SDS011;65202;52.520;10.528;2024-01-27T09:03:54;25.15;;;7.13;;
76380;SDS011;65202;52.520;10.528;2024-01-27T09:06:21;23.60;;;6.07;;
76380;SDS011;65202;52.520;10.528;2024-01-27T09:08:49;23.15;;;4.85;;
76380;SDS011;65202;52.520;10.528;2024-01-27T09:11:16;24.58;;;4.78;;
76380;SDS011;65202;52.520;10.528;2024-01-27T09:13:44;23.55;;;4.90;;
76380;SDS011;65202;52.520;10.528;2024-01-27T09:16:12;23.35;;;4.60;;
76380;SDS011;65202;52.520;10.528;2024-01-27T09:18:40;20.38;;;4.82;;
76380;SDS011;65202;52.520;10.528;2024-01-27T09:21:08;23.23;;;4.95;;
76380;SDS011;65202;52.520;10.528;2024-01-27T09:23:36;22.23;;;4.85;;
76380;SDS011;65202;52.520;10.528;2024-01-27T09:26:04;19.65;;;4.28;;
76380;SDS011;65202;52.520;10.528;2024-01-27T09:28:32;26.13;;;5.53;;
76380;SDS011;65202;52.520;10.528;2024-01-27T09:30:59;18.45;;;4.45;;
76380;SDS011;65202;52.520;10.528;2024-01-27T09:33:27;22.92;;;4.75;;
76380;SDS011;65202;52.520;10.528;2024-01-27T09:35:55;27.58;;;9.93;;
76380;SDS011;65202;52.520;10.528;2024-01-27T09:38:22;21.35;;;5.55;;
76380;SDS011;65202;52.520;10.528;2024-01-27T09:40:50;20.23;;;4.75;;
76380;SDS011;65202;52.520;10.528;2024-01-27T09:43:17;18.58;;;4.40;;
76380;SDS011;65202;52.520;10.528;2024-01-27T09:45:46;21.67;;;5.22;;
76380;SDS011;65202;52.520;10.528;2024-01-27T09:48:14;20.60;;;4.95;;
76380;SDS011;65202;52.520;10.528;2024-01-27T09:50:41;24.13;;;5.03;;
76380;SDS011;65202;52.520;10.528;2024-01-27T09:53:09;18.63;;;4.90;;
76380;SDS011;65202;52.520;10.528;2024-01-27T09:55:37;26.58;;;6.85;;
76380;SDS011;65202;52.520;10.528;2024-01-27T09:58:04;21.00;;;4.70;;
76380;SDS011;65202;52.520;10.528;2024-01-27T10:00:33;23.08;;;5.22;;
76380;SDS011;65202;52.520;10.528;2024-01-27T10:03:04;21.50;;;5.32;;
76380;SDS011;65202;52.520;10.528;2024-01-27T10:05:33;21.63;;;4.75;;
76380;SDS011;65202;52.520;10.528;2024-01-27T10:08:01;20.40;;;4.85;;
76380;SDS011;65202;52.520;10.528;2024-01-27T10:13:03;25.27;;;4.68;;
76380;SDS011;65202;52.520;10.528;2024-01-27T10:15:31;23.70;;;4.50;;
76380;SDS011;65202;52.520;10.528;2024-01-27T10:18:05;25.20;;;4.75;;
76380;SDS011;65202;52.520;10.528;2024-01-27T10:20:34;26.02;;;5.90;;
76380;SDS011;65202;52.520;10.528;2024-01-27T10:23:12;21.33;;;4.88;;
76380;SDS011;65202;52.520;10.528;2024-01-27T10:25:40;26.98;;;5.13;;
76380;SDS011;65202;52.520;10.528;2024-01-27T10:28:08;24.80;;;5.53;;
76380;SDS011;65202;52.520;10.528;2024-01-27T10:30:37;26.00;;;5.40;;
76380;SDS011;65202;52.520;10.528;2024-01-27T10:33:07;23.73;;;4.93;;
76380;SDS011;65202;52.520;10.528;2024-01-27T10:35:38;30.63;;;5.93;;
76380;SDS011;65202;52.520;10.528;2024-01-27T10:38:05;25.63;;;5.63;;
76380;SDS011;65202;52.520;10.528;2024-01-27T10:40:34;26.70;;;5.57;;
76380;SDS011;65202;52.520;10.528;2024-01-27T10:43:03;23.25;;;5.38;;
76380;SDS011;65202;52.520;10.528;2024-01-27T10:45:40;24.40;;;4.82;;
76380;SDS011;65202;52.520;10.528;2024-01-27T10:48:09;30.50;;;6.60;;
76380;SDS011;65202;52.520;10.528;2024-01-27T10:50:39;25.10;;;5.45;;
76380;SDS011;65202;52.520;10.528;2024-01-27T10:53:18;27.30;;;7.53;;
76380;SDS011;65202;52.520;10.528;2024-01-27T10:55:53;26.50;;;5.75;;
76380;SDS011;65202;52.520;10.528;2024-01-27T10:58:23;28.55;;;5.57;;
76380;SDS011;65202;52.520;10.528;2024-01-27T11:00:52;22.63;;;5.05;;
76380;SDS011;65202;52.520;10.528;2024-01-27T11:03:23;31.65;;;5.80;;
76380;SDS011;65202;52.520;10.528;2024-01-27T11:05:55;29.85;;;6.70;;
76380;SDS011;65202;52.520;10.528;2024-01-27T11:08:26;29.85;;;5.78;;
76380;SDS011;65202;52.520;10.528;2024-01-27T11:10:58;24.77;;;6.10;;
76380;SDS011;65202;52.520;10.528;2024-01-27T11:13:27;29.25;;;6.57;;
76380;SDS011;65202;52.520;10.528;2024-01-27T11:15:57;32.80;;;6.45;;
76380;SDS011;65202;52.520;10.528;2024-01-27T11:20:58;24.95;;;6.10;;
76380;SDS011;65202;52.520;10.528;2024-01-27T11:23:34;31.02;;;6.93;;
76380;SDS011;65202;52.520;10.528;2024-01-27T11:26:05;26.58;;;6.95;;
76380;SDS011;65202;52.520;10.528;2024-01-27T11:28:34;24.80;;;6.22;;
76380;SDS011;65202;52.520;10.528;2024-01-27T11:31:05;33.08;;;6.85;;
76380;SDS011;65202;52.520;10.528;2024-01-27T11:33:40;26.98;;;6.88;;
76380;SDS011;65202;52.520;10.528;2024-01-27T11:36:26;30.73;;;6.63;;
76380;SDS011;65202;52.520;10.528;2024-01-27T11:38:57;26.92;;;6.55;;
76380;SDS011;65202;52.520;10.528;2024-01-27T11:41:26;26.65;;;6.72;;
76380;SDS011;65202;52.520;10.528;2024-01-27T11:43:56;29.30;;;7.25;;
76380;SDS011;65202;52.520;10.528;2024-01-27T11:46:26;31.20;;;7.65;;
76380;SDS011;65202;52.520;10.528;2024-01-27T11:48:54;28.33;;;6.63;;
76380;SDS011;65202;52.520;10.528;2024-01-27T11:51:24;25.52;;;6.95;;
76380;SDS011;65202;52.520;10.528;2024-01-27T11:53:54;27.33;;;6.43;;
76380;SDS011;65202;52.520;10.528;2024-01-27T11:56:22;25.85;;;6.43;;
76380;SDS011;65202;52.520;10.528;2024-01-27T11:58:49;30.95;;;6.57;;
76380;SDS011;65202;52.520;10.528;2024-01-27T12:01:18;26.30;;;6.10;;
76380;SDS011;65202;52.520;10.528;2024-01-27T12:03:46;31.48;;;6.88;;
76380;SDS011;65202;52.520;10.528;2024-01-27T12:06:17;25.75;;;6.65;;
76380;SDS011;65202;52.520;10.528;2024-01-27T12:08:48;28.03;;;6.73;;
76380;SDS011;65202;52.520;10.528;2024-01-27T12:11:17;27.08;;;5.88;;
76380;SDS011;65202;52.520;10.528;2024-01-27T12:13:51;24.52;;;5.30;;
76380;SDS011;65202;52.520;10.528;2024-01-27T12:16:21;19.60;;;5.00;;
76380;SDS011;65202;52.520;10.528;2024-01-27T12:18:53;22.08;;;4.85;;
76380;SDS011;65202;52.520;10.528;2024-01-27T12:21:24;22.15;;;4.68;;
76380;SDS011;65202;52.520;10.528;2024-01-27T12:23:52;26.70;;;4.60;;
76380;SDS011;65202;52.520;10.528;2024-01-27T12:26:21;19.98;;;4.10;;
76380;SDS011;65202;52.520;10.528;2024-01-27T12:28:53;22.48;;;4.25;;
76380;SDS011;65202;52.520;10.528;2024-01-27T12:31:22;26.52;;;4.82;;
76380;SDS011;65202;52.520;10.528;2024-01-27T12:33:52;22.60;;;5.13;;
76380;SDS011;65202;52.520;10.528;2024-01-27T12:36:23;21.90;;;5.05;;
76380;SDS011;65202;52.520;10.528;2024-01-27T12:39:00;26.10;;;5.03;;
76380;SDS011;65202;52.520;10.528;2024-01-27T12:41:32;21.05;;;4.90;;
76380;SDS011;65202;52.520;10.528;2024-01-27T12:44:01;23.50;;;4.88;;
76380;SDS011;65202;52.520;10.528;2024-01-27T12:46:29;25.20;;;4.97;;
76380;SDS011;65202;52.520;10.528;2024-01-27T12:48:57;20.33;;;4.45;;
76380;SDS011;65202;52.520;10.528;2024-01-27T12:51:25;27.48;;;5.15;;
76380;SDS011;65202;52.520;10.528;2024-01-27T12:53:52;24.38;;;4.82;;
76380;SDS011;65202;52.520;10.528;2024-01-27T12:56:22;22.42;;;5.03;;
76380;SDS011;65202;52.520;10.528;2024-01-27T12:58:51;19.27;;;4.68;;
76380;SDS011;65202;52.520;10.528;2024-01-27T13:01:19;24.05;;;4.75;;
76380;SDS011;65202;52.520;10.528;2024-01-27T13:03:46;26.30;;;5.35;;
76380;SDS011;65202;52.520;10.528;2024-01-27T13:06:14;27.40;;;4.63;;
76380;SDS011;65202;52.520;10.528;2024-01-27T13:08:42;22.85;;;4.90;;
76380;SDS011;65202;52.520;10.528;2024-01-27T13:11:10;19.05;;;4.68;;
76380;SDS011;65202;52.520;10.528;2024-01-27T13:13:40;25.50;;;5.30;;
76380;SDS011;65202;52.520;10.528;2024-01-27T13:16:08;24.52;;;4.95;;
76380;SDS011;65202;52.520;10.528;2024-01-27T13:18:36;23.55;;;5.50;;
76380;SDS011;65202;52.520;10.528;2024-01-27T13:21:04;25.73;;;4.80;;
76380;SDS011;65202;52.520;10.528;2024-01-27T13:23:33;19.90;;;4.88;;
76380;SDS011;65202;52.520;10.528;2024-01-27T13:26:01;23.35;;;4.93;;
76380;SDS011;65202;52.520;10.528;2024-01-27T13:28:45;25.83;;;6.20;;
76380;SDS011;65202;52.520;10.528;2024-01-27T13:31:16;23.52;;;5.50;;
76380;SDS011;65202;52.520;10.528;2024-01-27T13:33:43;27.92;;;5.07;;
76380;SDS011;65202;52.520;10.528;2024-01-27T13:36:12;20.90;;;5.20;;
76380;SDS011;65202;52.520;10.528;2024-01-27T13:38:39;25.70;;;5.32;;
76380;SDS011;65202;52.520;10.528;2024-01-27T13:41:07;23.60;;;5.07;;
76380;SDS011;65202;52.520;10.528;2024-01-27T13:43:35;23.60;;;5.13;;
76380;SDS011;65202;52.520;10.528;2024-01-27T13:46:02;23.25;;;4.82;;
76380;SDS011;65202;52.520;10.528;2024-01-27T13:48:30;22.08;;;4.57;;
76380;SDS011;65202;52.520;10.528;2024-01-27T13:50:58;23.67;;;4.40;;
76380;SDS011;65202;52.520;10.528;2024-01-27T13:53:26;25.98;;;4.35;;
76380;SDS011;65202;52.520;10.528;2024-01-27T13:56:09;21.98;;;4.78;;
76380;SDS011;65202;52.520;10.528;2024-01-27T13:58:37;20.80;;;4.05;;
76380;SDS011;65202;52.520;10.528;2024-01-27T14:01:06;23.58;;;4.72;;
76380;SDS011;65202;52.520;10.528;2024-01-27T14:03:34;23.77;;;3.92;;
76380;SDS011;65202;52.520;10.528;2024-01-27T14:06:02;20.38;;;4.55;;
76380;SDS011;65202;52.520;10.528;2024-01-27T14:08:31;26.10;;;4.25;;
76380;SDS011;65202;52.520;10.528;2024-01-27T14:10:58;20.80;;;4.47;;
76380;SDS011;65202;52.520;10.528;2024-01-27T14:13:25;28.67;;;4.85;;
76380;SDS011;65202;52.520;10.528;2024-01-27T14:15:53;19.15;;;3.90;;
76380;SDS011;65202;52.520;10.528;2024-01-27T14:18:20;16.92;;;4.10;;
76380;SDS011;65202;52.520;10.528;2024-01-27T14:20:49;23.05;;;4.32;;
76380;SDS011;65202;52.520;10.528;2024-01-27T14:23:18;27.08;;;7.30;;
76380;SDS011;65202;52.520;10.528;2024-01-27T14:25:45;22.95;;;4.13;;
76380;SDS011;65202;52.520;10.528;2024-01-27T14:28:14;28.63;;;4.45;;
76380;SDS011;65202;52.520;10.528;2024-01-27T14:30:42;17.65;;;4.57;;
76380;SDS011;65202;52.520;10.528;2024-01-27T14:33:11;23.33;;;4.78;;